Time;durP1;ratioP1;P1;durP2;ratioP2;P2;SDS_P1;SDS_P2;PMS_P1;PMS_P2;Temp;Humidity;BMP_temperature;BMP_pressure;BME280_temperature;BME280_humidity;BME280_pressure;Samples;Min_cycle;Max_cycle;Signal;HPM_P1;HPM_P2
2021/12/01 00:00:43;;;;;;;;;;;;;;;;;;5062293;28;1547;-77
2021/12/01 00:03:08;;;;;;;;;;;;;;;;;;5062957;28;1247;-77
2021/12/01 00:05:34;;;;;;;;;;;;;;;;;;5079678;28;1070;-77
2021/12/01 00:07:59;;;;;;;;;;;;;;;;;;5082591;28;1939;-77
2021/12/01 00:10:26;;;;;;;;;;;;;;;;;;5098136;28;1211;-76
2021/12/01 00:12:52;;;;;;;;;;;;;;;;;;5101462;28;1139;-76
2021/12/01 00:15:18;;;;;;;;;;;;;;;;;;5062886;28;1152;-76
2021/12/01 00:17:44;;;;;;;;;;;;;;;;;;5071472;28;1250;-77
2021/12/01 00:20:10;;;;;;;;;;;;;;;;;;5082322;28;1236;-76
2021/12/01 00:22:35;;;;;;;;;;;;;;;;;;5082114;28;1455;-77
2021/12/01 00:25:01;;;;;;;;;;;;;;;;;;5079857;28;1183;-77
2021/12/01 00:27:26;;;;;;;;;;;;;;;;;;5073680;28;1910;-77
2021/12/01 00:29:52;;;;;;;;;;;;;;;;;;5082615;28;1160;-77
2021/12/01 00:32:18;;;;;;;;;;;;;;;;;;5064790;28;1196;-77
2021/12/01 00:34:44;;;;;;;;;;;;;;;;;;5063311;28;1178;-76
2021/12/01 00:37:09;;;;;;;;;;;;;;;;;;5060689;28;1279;-76
2021/12/01 00:39:35;;;;;;;;;;;;;;;;;;5058627;28;1302;-77
2021/12/01 00:42:00;;;;;;;;;;;;;;;;;;5043383;28;1287;-77
2021/12/01 00:44:29;;;;;;;;;;;;;;;;;;5080944;28;1206;-77
2021/12/01 00:49:29;;;;;;;;;;;;;;;;;;5083998;28;1088;-77
2021/12/01 00:51:54;;;;;;;;;;;;;;;;;;5078788;28;1147;-77
2021/12/01 00:54:20;;;;;;;;;;;;;;;;;;5060839;28;1449;-76
2021/12/01 00:56:45;;;;;;;;;;;;;;;;;;5059898;28;1215;-77
2021/12/01 00:59:11;;;;;;;;;;;;;;;;;;5083494;28;1191;-76
2021/12/01 01:01:36;;;;;;;;;;;;;;;;;;5068215;28;1420;-79
2021/12/01 01:04:03;;;;;;;;;;;;;;;;;;5047566;28;1184;-77
2021/12/01 01:06:28;;;;;;;;;;;;;;;;;;5080043;28;1612;-78
2021/12/01 01:08:53;;;;;;;;;;;;;;;;;;5082919;28;1902;-78
2021/12/01 01:16:49;;;;;;;;;;;;;;;;;;5105943;28;964;-77
2021/12/01 01:19:15;;;;;;;;;;;;;;;;;;5087852;28;1179;-77
2021/12/01 01:21:43;;;;;;;;;;;;;;;;;;5070166;28;1419;-78
2021/12/01 01:24:09;;;;;;;;;;;;;;;;;;5104694;28;1132;-78
2021/12/01 01:26:35;;;;;;;;;;;;;;;;;;5093301;28;1171;-78
2021/12/01 01:29:01;;;;;;;;;;;;;;;;;;5092541;28;1894;-76
2021/12/01 01:31:26;;;;;;;;;;;;;;;;;;5063890;28;1305;-77
2021/12/01 01:33:52;;;;;;;;;;;;;;;;;;5063631;28;1349;-77
2021/12/01 01:36:17;;;;;;;;;;;;;;;;;;5068025;28;1306;-78
2021/12/01 01:38:44;;;;;;;;;;;;;;;;;;5104711;28;1182;-78
2021/12/01 01:41:10;;;;;;;;;;;;;;;;;;5080380;28;1159;-77
2021/12/01 01:43:37;;;;;;;;;;;;;;;;;;5090636;28;1246;-77
2021/12/01 01:46:03;;;;;;;;;;;;;;;;;;5082961;28;1284;-77
2021/12/01 01:48:32;;;;;;;;;;;;;;;;;;5095099;28;1981;-77
2021/12/01 01:51:01;;;;;;;;;;;;;;;;;;5095451;28;1045;-77
2021/12/01 01:53:28;;;;;;;;;;;;;;;;;;5085431;28;1135;-77
2021/12/01 01:55:57;;;;;;;;;;;;;;;;;;5061738;28;1227;-77
2021/12/01 01:58:23;;;;;;;;;;;;;;;;;;5074971;28;1385;-77
2021/12/01 02:00:54;;;;;;;;;;;;;;;;;;5082851;28;1246;-78
2021/12/01 02:03:21;;;;;;;;;;;;;;;;;;5080014;28;1357;-78
2021/12/01 02:05:46;;;;;;;;;;;;;;;;;;5073249;28;1241;-77
2021/12/01 02:08:17;;;;;;;;;;;;;;;;;;5065317;28;1894;-78
2021/12/01 02:10:43;;;;;;;;;;;;;;;;;;5059292;28;1260;-77
2021/12/01 02:13:09;;;;;;;;;;;;;;;;;;5081718;28;1156;-77
2021/12/01 02:15:35;;;;;;;;;;;;;;;;;;5081273;28;1290;-77
2021/12/01 02:18:00;;;;;;;;;;;;;;;;;;5066063;28;1322;-77
2021/12/01 02:20:26;;;;;;;;;;;;;;;;;;5048482;28;1232;-77
2021/12/01 02:22:51;;;;;;;;;;;;;;;;;;5054556;28;1208;-76
2021/12/01 02:25:17;;;;;;;;;;;;;;;;;;5071638;28;1464;-76
2021/12/01 02:27:42;;;;;;;;;;;;;;;;;;5068153;28;1969;-77
2021/12/01 02:30:08;;;;;;;;;;;;;;;;;;5047082;28;1183;-77
2021/12/01 02:32:33;;;;;;;;;;;;;;;;;;5071428;28;1180;-77
2021/12/01 02:34:59;;;;;;;;;;;;;;;;;;5082315;28;1207;-78
2021/12/01 02:37:27;;;;;;;;;;;;;;;;;;5065311;28;1320;-77
2021/12/01 02:39:53;;;;;;;;;;;;;;;;;;5078337;28;1260;-78
2021/12/01 02:42:19;;;;;;;;;;;;;;;;;;5078839;28;1389;-78
2021/12/01 02:44:44;;;;;;;;;;;;;;;;;;5075069;28;1139;-77
2021/12/01 02:47:09;;;;;;;;;;;;;;;;;;5045769;28;1909;-77
2021/12/01 02:49:35;;;;;;;;;;;;;;;;;;5060844;28;1014;-76
2021/12/01 02:52:00;;;;;;;;;;;;;;;;;;5070011;28;1172;-76
2021/12/01 02:54:26;;;;;;;;;;;;;;;;;;5061570;28;1219;-76
2021/12/01 02:56:52;;;;;;;;;;;;;;;;;;5059147;28;1199;-78
2021/12/01 02:59:17;;;;;;;;;;;;;;;;;;5065498;28;1128;-77
2021/12/01 03:01:44;;;;;;;;;;;;;;;;;;5060580;28;1148;-76
2021/12/01 03:04:09;;;;;;;;;;;;;;;;;;5068203;28;1310;-76
2021/12/01 03:06:36;;;;;;;;;;;;;;;;;;5073932;28;1223;-76
2021/12/01 03:09:03;;;;;;;;;;;;;;;;;;5069866;28;1893;-76
2021/12/01 03:11:29;;;;;;;;;;;;;;;;;;5060329;28;1376;-75
2021/12/01 03:13:55;;;;;;;;;;;;;;;;;;5078642;28;1184;-76
2021/12/01 03:16:20;;;;;;;;;;;;;;;;;;5064036;28;1224;-77
2021/12/01 03:18:46;;;;;;;;;;;;;;;;;;5062014;28;1249;-76
2021/12/01 03:21:12;;;;;;;;;;;;;;;;;;5042871;28;1459;-76
2021/12/01 03:23:37;;;;;;;;;;;;;;;;;;5046182;28;1224;-77
2021/12/01 03:26:02;;;;;;;;;;;;;;;;;;5038141;28;1300;-77
2021/12/01 03:28:28;;;;;;;;;;;;;;;;;;5065281;28;1940;-77
2021/12/01 03:30:53;;;;;;;;;;;;;;;;;;5058646;28;1148;-77
2021/12/01 03:33:19;;;;;;;;;;;;;;;;;;5073373;28;1206;-77
2021/12/01 03:35:45;;;;;;;;;;;;;;;;;;5048215;28;1179;-77
2021/12/01 03:38:11;;;;;;;;;;;;;;;;;;5087195;28;1254;-77
2021/12/01 03:40:37;;;;;;;;;;;;;;;;;;5097132;28;1156;-78
2021/12/01 03:43:02;;;;;;;;;;;;;;;;;;5078715;28;1163;-77
2021/12/01 03:45:27;;;;;;;;;;;;;;;;;;5096182;28;1223;-76
2021/12/01 03:47:53;;;;;;;;;;;;;;;;;;5102461;28;1918;-76
2021/12/01 03:50:18;;;;;;;;;;;;;;;;;;5101060;28;1147;-76
2021/12/01 03:52:44;;;;;;;;;;;;;;;;;;5064152;28;1171;-76
2021/12/01 03:55:09;;;;;;;;;;;;;;;;;;5079427;28;1247;-76
2021/12/01 03:57:35;;;;;;;;;;;;;;;;;;5099188;28;1144;-77
2021/12/01 04:00:00;;;;;;;;;;;;;;;;;;5072633;28;1167;-76
2021/12/01 04:02:26;;;;;;;;;;;;;;;;;;5082942;28;1195;-76
2021/12/01 04:04:52;;;;;;;;;;;;;;;;;;5078363;28;1132;-76
2021/12/01 04:07:17;;;;;;;;;;;;;;;;;;5060326;28;1898;-75
2021/12/01 04:09:43;;;;;;;;;;;;;;;;;;5059091;28;1187;-76
2021/12/01 04:12:09;;;;;;;;;;;;;;;;;;5045098;28;1341;-77
2021/12/01 04:14:35;;;;;;;;;;;;;;;;;;5047530;28;1337;-77
2021/12/01 04:17:00;;;;;;;;;;;;;;;;;;5046376;28;1152;-77
2021/12/01 04:19:26;;;;;;;;;;;;;;;;;;5065626;28;1156;-77
2021/12/01 04:21:51;;;;;;;;;;;;;;;;;;5055999;28;1026;-77
2021/12/01 04:24:16;;;;;;;;;;;;;;;;;;5085267;28;1302;-77
2021/12/01 04:26:42;;;;;;;;;;;;;;;;;;5060730;28;1521;-75
2021/12/01 04:29:07;;;;;;;;;;;;;;;;;;5081412;28;1901;-75
2021/12/01 04:31:40;;;;;;;;;;;;;;;;;;5050340;28;1270;-76
2021/12/01 04:34:05;;;;;;;;;;;;;;;;;;5084335;28;1088;-75
2021/12/01 04:36:33;;;;;;;;;;;;;;;;;;5056383;28;1197;-75
2021/12/01 04:38:59;;;;;;;;;;;;;;;;;;5057092;28;1223;-77
2021/12/01 04:41:26;;;;;;;;;;;;;;;;;;5058229;28;1196;-76
2021/12/01 04:43:53;;;;;;;;;;;;;;;;;;5045824;28;1379;-76
2021/12/01 04:46:20;;;;;;;;;;;;;;;;;;5063107;28;1711;-77
2021/12/01 04:48:45;;;;;;;;;;;;;;;;;;5064413;28;1906;-76
2021/12/01 04:51:11;;;;;;;;;;;;;;;;;;5078126;28;1207;-75
2021/12/01 04:53:38;;;;;;;;;;;;;;;;;;5065578;28;1151;-76
2021/12/01 04:56:03;;;;;;;;;;;;;;;;;;5068243;28;1133;-76
2021/12/01 04:58:29;;;;;;;;;;;;;;;;;;5063614;28;1235;-75
2021/12/01 05:00:56;;;;;;;;;;;;;;;;;;5060290;28;1310;-77
2021/12/01 05:03:22;;;;;;;;;;;;;;;;;;5062872;28;1176;-77
2021/12/01 05:05:47;;;;;;;;;;;;;;;;;;5055458;28;1263;-76
2021/12/01 05:08:12;;;;;;;;;;;;;;;;;;5047434;28;1890;-75
2021/12/01 05:10:38;;;;;;;;;;;;;;;;;;5040315;28;1286;-76
2021/12/01 05:13:03;;;;;;;;;;;;;;;;;;5057597;28;1079;-77
2021/12/01 05:15:29;;;;;;;;;;;;;;;;;;5063106;28;1164;-77
2021/12/01 05:17:54;;;;;;;;;;;;;;;;;;5075815;28;1174;-77
2021/12/01 05:20:19;;;;;;;;;;;;;;;;;;5077951;28;1242;-77
2021/12/01 05:22:45;;;;;;;;;;;;;;;;;;5066238;28;1332;-77
2021/12/01 05:25:10;;;;;;;;;;;;;;;;;;5041572;28;1670;-76
2021/12/01 05:27:39;;;;;;;;;;;;;;;;;;5068543;28;1964;-77
2021/12/01 05:30:05;;;;;;;;;;;;;;;;;;5058227;28;1148;-77
2021/12/01 05:32:31;;;;;;;;;;;;;;;;;;5066921;28;1164;-77
2021/12/01 05:35:00;;;;;;;;;;;;;;;;;;5041450;28;1215;-77
2021/12/01 05:37:26;;;;;;;;;;;;;;;;;;5058033;28;1309;-77
2021/12/01 05:39:51;;;;;;;;;;;;;;;;;;5073627;28;1264;-78
2021/12/01 05:42:16;;;;;;;;;;;;;;;;;;5075980;28;1041;-76
2021/12/01 05:44:43;;;;;;;;;;;;;;;;;;5082494;28;1152;-76
2021/12/01 05:47:09;;;;;;;;;;;;;;;;;;5079003;28;1172;-75
2021/12/01 05:49:40;;;;;;;;;;;;;;;;;;5081918;28;1918;-76
2021/12/01 05:52:07;;;;;;;;;;;;;;;;;;5077887;28;1102;-76
2021/12/01 05:54:33;;;;;;;;;;;;;;;;;;5080985;28;1372;-77
2021/12/01 05:56:58;;;;;;;;;;;;;;;;;;5075720;28;1176;-77
2021/12/01 05:59:23;;;;;;;;;;;;;;;;;;5055134;28;1355;-77
2021/12/01 06:01:48;;;;;;;;;;;;;;;;;;5082927;28;1175;-77
2021/12/01 06:04:14;;;;;;;;;;;;;;;;;;5066822;28;1242;-76
2021/12/01 06:06:39;;;;;;;;;;;;;;;;;;5062975;28;1374;-77
2021/12/01 06:09:05;;;;;;;;;;;;;;;;;;5061447;28;1947;-76
2021/12/01 06:11:30;;;;;;;;;;;;;;;;;;5061259;28;1219;-77
2021/12/01 06:13:56;;;;;;;;;;;;;;;;;;5043763;28;1251;-77
2021/12/01 06:16:22;;;;;;;;;;;;;;;;;;5071071;28;1294;-76
2021/12/01 06:18:48;;;;;;;;;;;;;;;;;;5052900;28;1178;-77
2021/12/01 06:21:14;;;;;;;;;;;;;;;;;;5060075;28;1202;-76
2021/12/01 06:23:39;;;;;;;;;;;;;;;;;;5084304;28;1455;-77
2021/12/01 06:26:05;;;;;;;;;;;;;;;;;;5058685;28;1357;-76
2021/12/01 06:28:30;;;;;;;;;;;;;;;;;;5065744;28;1906;-76
2021/12/01 06:30:55;;;;;;;;;;;;;;;;;;5059325;28;1140;-76
2021/12/01 06:33:20;;;;;;;;;;;;;;;;;;5085443;28;1191;-77
2021/12/01 06:35:49;;;;;;;;;;;;;;;;;;5077920;28;1305;-77
2021/12/01 06:38:14;;;;;;;;;;;;;;;;;;5067056;28;1616;-77
2021/12/01 06:40:40;;;;;;;;;;;;;;;;;;5046456;28;1182;-77
2021/12/01 06:43:05;;;;;;;;;;;;;;;;;;5094234;28;1135;-77
2021/12/01 06:45:30;;;;;;;;;;;;;;;;;;5094166;28;1147;-76
2021/12/01 06:47:55;;;;;;;;;;;;;;;;;;5083201;28;1949;-77
2021/12/01 06:50:21;;;;;;;;;;;;;;;;;;5066759;28;1188;-77
2021/12/01 06:53:05;;;;;;;;;;;;;;;;;;5086285;28;1590;-77
2021/12/01 06:55:30;;;;;;;;;;;;;;;;;;5085099;28;1203;-78
2021/12/01 06:57:55;;;;;;;;;;;;;;;;;;5062893;28;1195;-78
2021/12/01 07:00:21;;;;;;;;;;;;;;;;;;5054600;28;1366;-77
2021/12/01 07:02:47;;;;;;;;;;;;;;;;;;5086108;28;1333;-77
2021/12/01 07:05:13;;;;;;;;;;;;;;;;;;5047406;28;1262;-77
2021/12/01 07:07:39;;;;;;;;;;;;;;;;;;5085209;28;1963;-78
2021/12/01 07:10:05;;;;;;;;;;;;;;;;;;5080424;28;1188;-78
2021/12/01 07:12:30;;;;;;;;;;;;;;;;;;5084312;28;1227;-78
2021/12/01 07:14:56;;;;;;;;;;;;;;;;;;5063456;28;1423;-78
2021/12/01 07:17:22;;;;;;;;;;;;;;;;;;5050878;28;1235;-77
2021/12/01 07:19:48;;;;;;;;;;;;;;;;;;5066316;28;1191;-77
2021/12/01 07:22:13;;;;;;;;;;;;;;;;;;5066216;28;1228;-77
2021/12/01 07:24:39;;;;;;;;;;;;;;;;;;5104712;28;1143;-77
2021/12/01 07:27:04;;;;;;;;;;;;;;;;;;5081691;28;1136;-77
2021/12/01 07:29:30;;;;;;;;;;;;;;;;;;5086120;28;1893;-76
2021/12/01 07:31:55;;;;;;;;;;;;;;;;;;5046838;28;1247;-77
2021/12/01 07:34:21;;;;;;;;;;;;;;;;;;5090223;28;1200;-78
2021/12/01 07:36:46;;;;;;;;;;;;;;;;;;5066679;28;1287;-77
2021/12/01 07:39:11;;;;;;;;;;;;;;;;;;5082504;28;1210;-77
2021/12/01 07:41:37;;;;;;;;;;;;;;;;;;5065987;28;1243;-77
2021/12/01 07:44:02;;;;;;;;;;;;;;;;;;5062804;28;1227;-77
2021/12/01 07:46:27;;;;;;;;;;;;;;;;;;5083359;28;1136;-77
2021/12/01 07:48:53;;;;;;;;;;;;;;;;;;5067237;28;1910;-77
2021/12/01 07:51:18;;;;;;;;;;;;;;;;;;5047672;28;1175;-77
2021/12/01 07:53:45;;;;;;;;;;;;;;;;;;5068649;28;1191;-78
2021/12/01 07:56:10;;;;;;;;;;;;;;;;;;5079959;28;1281;-77
2021/12/01 07:58:35;;;;;;;;;;;;;;;;;;5084864;28;1277;-77
2021/12/01 08:01:00;;;;;;;;;;;;;;;;;;5079574;28;1178;-76
2021/12/01 08:03:26;;;;;;;;;;;;;;;;;;5066055;28;1234;-77
2021/12/01 08:05:52;;;;;;;;;;;;;;;;;;5084765;28;1159;-77
2021/12/01 08:08:18;;;;;;;;;;;;;;;;;;5065446;28;2020;-77
2021/12/01 08:10:45;;;;;;;;;;;;;;;;;;5076967;28;1199;-78
2021/12/01 08:13:10;;;;;;;;;;;;;;;;;;5080607;28;1146;-78
2021/12/01 08:15:35;;;;;;;;;;;;;;;;;;5080874;28;1168;-77
2021/12/01 08:18:00;;;;;;;;;;;;;;;;;;5069162;28;1174;-78
2021/12/01 08:20:26;;;;;;;;;;;;;;;;;;5050314;28;1200;-76
2021/12/01 08:22:51;;;;;;;;;;;;;;;;;;5083445;28;1413;-77
2021/12/01 08:25:17;;;;;;;;;;;;;;;;;;5089959;28;1019;-77
2021/12/01 08:27:42;;;;;;;;;;;;;;;;;;5084018;28;1942;-77
2021/12/01 08:30:08;;;;;;;;;;;;;;;;;;5096041;28;1207;-76
2021/12/01 08:32:33;;;;;;;;;;;;;;;;;;5090635;28;1179;-77
2021/12/01 08:35:02;;;;;;;;;;;;;;;;;;5081784;28;1373;-77
2021/12/01 08:37:28;;;;;;;;;;;;;;;;;;5054069;28;1370;-77
2021/12/01 08:39:53;;;;;;;;;;;;;;;;;;5061126;28;1288;-76
2021/12/01 08:42:20;;;;;;;;;;;;;;;;;;5066415;28;1270;-76
2021/12/01 08:44:46;;;;;;;;;;;;;;;;;;5061612;28;1050;-76
2021/12/01 08:47:12;;;;;;;;;;;;;;;;;;5056678;28;1181;-77
2021/12/01 08:49:37;;;;;;;;;;;;;;;;;;5062338;28;1971;-76
2021/12/01 08:52:03;;;;;;;;;;;;;;;;;;5052648;28;1191;-77
2021/12/01 08:54:28;;;;;;;;;;;;;;;;;;5043444;28;1317;-77
2021/12/01 08:56:53;;;;;;;;;;;;;;;;;;5042156;28;1269;-77
2021/12/01 08:59:18;;;;;;;;;;;;;;;;;;5060404;28;1083;-77
2021/12/01 09:01:44;;;;;;;;;;;;;;;;;;5063269;28;1234;-77
2021/12/01 09:04:09;;;;;;;;;;;;;;;;;;5059353;28;1168;-77
2021/12/01 09:06:34;;;;;;;;;;;;;;;;;;5059864;28;1263;-78
2021/12/01 09:09:00;;;;;;;;;;;;;;;;;;5058667;28;1894;-76
2021/12/01 09:11:25;;;;;;;;;;;;;;;;;;5043529;28;1204;-76
2021/12/01 09:13:51;;;;;;;;;;;;;;;;;;5064581;28;1278;-76
2021/12/01 09:16:16;;;;;;;;;;;;;;;;;;5078684;28;1114;-77
2021/12/01 09:18:42;;;;;;;;;;;;;;;;;;5083149;28;1163;-77
2021/12/01 09:21:08;;;;;;;;;;;;;;;;;;5071987;28;1147;-76
2021/12/01 09:23:33;;;;;;;;;;;;;;;;;;5087611;28;1160;-76
2021/12/01 09:25:59;;;;;;;;;;;;;;;;;;5060955;28;1271;-77
2021/12/01 09:28:25;;;;;;;;;;;;;;;;;;5084512;28;1894;-77
2021/12/01 09:30:51;;;;;;;;;;;;;;;;;;5081680;28;1430;-76
2021/12/01 09:33:16;;;;;;;;;;;;;;;;;;5085961;28;1500;-77
2021/12/01 09:35:43;;;;;;;;;;;;;;;;;;5069153;28;1185;-76
2021/12/01 09:38:08;;;;;;;;;;;;;;;;;;5100926;28;1455;-77
2021/12/01 09:40:34;;;;;;;;;;;;;;;;;;5068385;28;1477;-77
2021/12/01 09:43:02;;;;;;;;;;;;;;;;;;5089770;28;1287;-81
2021/12/01 09:45:27;;;;;;;;;;;;;;;;;;5082656;28;1189;-79
2021/12/01 09:47:53;;;;;;;;;;;;;;;;;;5087879;28;1963;-78
2021/12/01 09:50:18;;;;;;;;;;;;;;;;;;5104007;28;1183;-76
2021/12/01 09:52:44;;;;;;;;;;;;;;;;;;5087694;28;1207;-77
2021/12/01 09:55:12;;;;;;;;;;;;;;;;;;5108069;28;1076;-79
2021/12/01 09:57:37;;;;;;;;;;;;;;;;;;5084205;28;1297;-78
2021/12/01 10:00:15;;;;;;;;;;;;;;;;;;5103983;28;1229;-77
2021/12/01 10:03:07;;;;;;;;;;;;;;;;;;5092490;28;1088;-79
2021/12/01 10:06:36;;;;;;;;;;;;;;;;;;5043110;28;1218;-80
2021/12/01 10:08:41;;;;;;;;;;;;;;;;;;5075472;28;1890;-77
2021/12/01 10:11:10;;;;;;;;;;;;;;;;;;5093964;28;1189;-78
2021/12/01 10:13:37;;;;;;;;;;;;;;;;;;5087738;28;1176;-79
2021/12/01 10:16:21;;;;;;;;;;;;;;;;;;5092992;28;1329;-79
2021/12/01 10:18:48;;;;;;;;;;;;;;;;;;5071569;28;1330;-78
2021/12/01 10:21:20;;;;;;;;;;;;;;;;;;5058604;28;1218;-78
2021/12/01 10:23:58;;;;;;;;;;;;;;;;;;5077716;28;1293;-78
2021/12/01 10:26:26;;;;;;;;;;;;;;;;;;5080095;28;1167;-78
2021/12/01 10:31:45;;;;;;;;;;;;;;;;;;5061194;28;1151;-80
2021/12/01 10:34:14;;;;;;;;;;;;;;;;;;5075798;28;1183;-80
2021/12/01 10:36:43;;;;;;;;;;;;;;;;;;5058692;28;1311;-81
2021/12/01 10:39:21;;;;;;;;;;;;;;;;;;5063948;28;1174;-82
2021/12/01 10:42:15;;;;;;;;;;;;;;;;;;5052044;28;1210;-80
2021/12/01 10:44:55;;;;;;;;;;;;;;;;;;5079123;28;1152;-80
2021/12/01 10:47:20;;;;;;;;;;;;;;;;;;5079091;28;1172;-80
2021/12/01 10:49:47;;;;;;;;;;;;;;;;;;5084826;28;1957;-80
2021/12/01 10:52:32;;;;;;;;;;;;;;;;;;5078942;28;1065;-75
2021/12/01 10:55:05;;;;;;;;;;;;;;;;;;5067483;28;1160;-75
2021/12/01 10:57:47;;;;;;;;;;;;;;;;;;5044019;28;1246;-77
2021/12/01 11:00:13;;;;;;;;;;;;;;;;;;5059405;28;1318;-76
2021/12/01 11:02:38;;;;;;;;;;;;;;;;;;5067593;28;1159;-75
2021/12/01 11:05:03;;;;;;;;;;;;;;;;;;5068460;28;1216;-77
2021/12/01 11:07:33;;;;;;;;;;;;;;;;;;5064150;28;1926;-80
2021/12/01 11:10:15;;;;;;;;;;;;;;;;;;5077718;28;1242;-79
2021/12/01 11:12:42;;;;;;;;;;;;;;;;;;5060954;28;1313;-79
2021/12/01 11:15:16;;;;;;;;;;;;;;;;;;5067127;28;1167;-80
2021/12/01 11:17:41;;;;;;;;;;;;;;;;;;5075267;28;1315;-80
2021/12/01 11:20:08;;;;;;;;;;;;;;;;;;5064596;28;1210;-81
2021/12/01 11:22:36;;;;;;;;;;;;;;;;;;5067181;28;1246;-80
2021/12/01 11:25:21;;;;;;;;;;;;;;;;;;5081669;28;1167;-80
2021/12/01 11:27:47;;;;;;;;;;;;;;;;;;5072358;28;1961;-81
2021/12/01 11:30:15;;;;;;;;;;;;;;;;;;5076998;28;1285;-80
2021/12/01 11:32:41;;;;;;;;;;;;;;;;;;5069045;28;1321;-79
2021/12/01 11:35:06;;;;;;;;;;;;;;;;;;5062853;28;1174;-80
2021/12/01 11:37:31;;;;;;;;;;;;;;;;;;5052913;28;1273;-79
2021/12/01 11:39:57;;;;;;;;;;;;;;;;;;5051319;28;1482;-79
2021/12/01 11:42:24;;;;;;;;;;;;;;;;;;5043817;28;1387;-80
2021/12/01 11:44:51;;;;;;;;;;;;;;;;;;5040329;28;1272;-80
2021/12/01 11:47:16;;;;;;;;;;;;;;;;;;5066549;28;1172;-80
2021/12/01 11:49:43;;;;;;;;;;;;;;;;;;5050437;28;1914;-79
2021/12/01 11:52:10;;;;;;;;;;;;;;;;;;5065381;28;1237;-79
2021/12/01 11:54:45;;;;;;;;;;;;;;;;;;5069755;28;1151;-79
2021/12/01 11:57:11;;;;;;;;;;;;;;;;;;5080058;28;1639;-78
2021/12/01 11:59:37;;;;;;;;;;;;;;;;;;5071835;28;1414;-80
2021/12/01 12:02:04;;;;;;;;;;;;;;;;;;5060477;28;1276;-80
2021/12/01 12:04:46;;;;;;;;;;;;;;;;;;5068537;28;1073;-79
2021/12/01 12:07:13;;;;;;;;;;;;;;;;;;5074697;28;1302;-79
2021/12/01 12:09:39;;;;;;;;;;;;;;;;;;5076672;28;1990;-79
2021/12/01 12:12:19;;;;;;;;;;;;;;;;;;5071988;28;1335;-79
2021/12/01 12:14:45;;;;;;;;;;;;;;;;;;5079921;28;1617;-77
2021/12/01 12:17:12;;;;;;;;;;;;;;;;;;5082469;28;1277;-80
2021/12/01 12:19:44;;;;;;;;;;;;;;;;;;5062845;28;1317;-80
2021/12/01 12:22:40;;;;;;;;;;;;;;;;;;5058639;28;1180;-80
2021/12/01 12:25:08;;;;;;;;;;;;;;;;;;5061420;28;1124;-79
2021/12/01 12:27:39;;;;;;;;;;;;;;;;;;5054894;28;1894;-81
2021/12/01 12:30:09;;;;;;;;;;;;;;;;;;5079898;28;1100;-80
2021/12/01 12:32:34;;;;;;;;;;;;;;;;;;5064255;28;1237;-80
2021/12/01 12:35:02;;;;;;;;;;;;;;;;;;5061916;28;1301;-80
2021/12/01 12:37:30;;;;;;;;;;;;;;;;;;5063211;28;1425;-81
2021/12/01 12:39:57;;;;;;;;;;;;;;;;;;5082814;28;1175;-79
2021/12/01 12:42:23;;;;;;;;;;;;;;;;;;5061639;28;1084;-79
2021/12/01 12:44:50;;;;;;;;;;;;;;;;;;5065510;28;1297;-79
2021/12/01 12:47:22;;;;;;;;;;;;;;;;;;5059267;28;1307;-80
2021/12/01 12:50:01;;;;;;;;;;;;;;;;;;5069740;28;1914;-79
2021/12/01 12:52:26;;;;;;;;;;;;;;;;;;5062750;28;1312;-80
2021/12/01 12:54:55;;;;;;;;;;;;;;;;;;5059831;28;1129;-80
2021/12/01 12:57:39;;;;;;;;;;;;;;;;;;5059451;28;1192;-79
2021/12/01 13:00:18;;;;;;;;;;;;;;;;;;5061467;28;1164;-80
2021/12/01 13:02:44;;;;;;;;;;;;;;;;;;5061084;28;1329;-80
2021/12/01 13:05:09;;;;;;;;;;;;;;;;;;5062967;28;1085;-81
2021/12/01 13:07:42;;;;;;;;;;;;;;;;;;5041398;28;1890;-81
2021/12/01 13:10:09;;;;;;;;;;;;;;;;;;5060510;28;1377;-80
2021/12/01 13:12:44;;;;;;;;;;;;;;;;;;5058594;28;1081;-80
2021/12/01 13:15:28;;;;;;;;;;;;;;;;;;5065343;28;1345;-80
2021/12/01 13:17:57;;;;;;;;;;;;;;;;;;5085115;28;1132;-80
2021/12/01 13:20:31;;;;;;;;;;;;;;;;;;5081538;28;1176;-80
2021/12/01 13:23:04;;;;;;;;;;;;;;;;;;5080708;28;1259;-80
2021/12/01 13:25:29;;;;;;;;;;;;;;;;;;5079819;28;1377;-80
2021/12/01 13:27:55;;;;;;;;;;;;;;;;;;5083138;28;1886;-81
2021/12/01 13:30:21;;;;;;;;;;;;;;;;;;5080011;28;1314;-81
2021/12/01 13:33:04;;;;;;;;;;;;;;;;;;5042349;28;1305;-81
2021/12/01 13:35:29;;;;;;;;;;;;;;;;;;5063450;28;1206;-80
2021/12/01 13:37:57;;;;;;;;;;;;;;;;;;5043206;28;1228;-80
2021/12/01 13:40:26;;;;;;;;;;;;;;;;;;5060925;28;1257;-80
2021/12/01 13:42:51;;;;;;;;;;;;;;;;;;5081955;28;1219;-81
2021/12/01 13:45:17;;;;;;;;;;;;;;;;;;5063894;28;1286;-81
2021/12/01 13:47:44;;;;;;;;;;;;;;;;;;5058268;28;1902;-82
2021/12/01 13:50:09;;;;;;;;;;;;;;;;;;5061999;28;1148;-82
2021/12/01 13:52:49;;;;;;;;;;;;;;;;;;5079395;28;1385;-80
2021/12/01 13:55:31;;;;;;;;;;;;;;;;;;5078804;28;1260;-80
2021/12/01 13:58:06;;;;;;;;;;;;;;;;;;5064280;28;1291;-80
2021/12/01 14:00:31;;;;;;;;;;;;;;;;;;5062179;28;1081;-81
2021/12/01 14:02:57;;;;;;;;;;;;;;;;;;5069397;28;1214;-80
2021/12/01 14:05:26;;;;;;;;;;;;;;;;;;5064216;28;1470;-81
2021/12/01 14:07:52;;;;;;;;;;;;;;;;;;5082828;28;1877;-81
2021/12/01 14:10:33;;;;;;;;;;;;;;;;;;5092507;28;1151;-80
2021/12/01 14:12:59;;;;;;;;;;;;;;;;;;5083293;28;1202;-80
2021/12/01 14:15:28;;;;;;;;;;;;;;;;;;5062375;28;1141;-80
2021/12/01 14:17:54;;;;;;;;;;;;;;;;;;5065163;28;1258;-79
2021/12/01 14:20:19;;;;;;;;;;;;;;;;;;5066707;28;1132;-80
2021/12/01 14:22:45;;;;;;;;;;;;;;;;;;5051009;28;1199;-79
2021/12/01 14:25:12;;;;;;;;;;;;;;;;;;5050826;28;1349;-79
2021/12/01 14:27:38;;;;;;;;;;;;;;;;;;5064241;28;1890;-79
2021/12/01 14:30:06;;;;;;;;;;;;;;;;;;5048612;28;1450;-77
2021/12/01 14:32:31;;;;;;;;;;;;;;;;;;5064238;28;1132;-84
2021/12/01 14:35:02;;;;;;;;;;;;;;;;;;5073018;28;1086;-76
2021/12/01 14:37:28;;;;;;;;;;;;;;;;;;5064436;28;1291;-76
2021/12/01 14:40:03;;;;;;;;;;;;;;;;;;5062349;28;1088;-77
2021/12/01 14:42:28;;;;;;;;;;;;;;;;;;5054781;28;1243;-77
2021/12/01 14:45:02;;;;;;;;;;;;;;;;;;5042389;28;1254;-76
2021/12/01 14:47:27;;;;;;;;;;;;;;;;;;5056977;28;1223;-77
2021/12/01 14:49:55;;;;;;;;;;;;;;;;;;5036577;28;1918;-78
2021/12/01 14:52:22;;;;;;;;;;;;;;;;;;5061410;28;1167;-78
2021/12/01 14:54:54;;;;;;;;;;;;;;;;;;5065110;28;1194;-77
2021/12/01 14:57:26;;;;;;;;;;;;;;;;;;5086789;28;1068;-78
2021/12/01 14:59:56;;;;;;;;;;;;;;;;;;5049633;28;1353;-77
2021/12/01 15:02:27;;;;;;;;;;;;;;;;;;5066277;28;1334;-78
2021/12/01 15:05:06;;;;;;;;;;;;;;;;;;5065487;28;1147;-78
2021/12/01 15:07:32;;;;;;;;;;;;;;;;;;5061597;28;1209;-79
2021/12/01 15:10:08;;;;;;;;;;;;;;;;;;5086309;28;1901;-78
2021/12/01 15:12:34;;;;;;;;;;;;;;;;;;5064025;28;1240;-78
2021/12/01 15:14:59;;;;;;;;;;;;;;;;;;5051724;28;1207;-78
2021/12/01 15:17:24;;;;;;;;;;;;;;;;;;5068071;28;1459;-79
2021/12/01 15:20:09;;;;;;;;;;;;;;;;;;5086276;28;1227;-79
2021/12/01 15:22:35;;;;;;;;;;;;;;;;;;5084201;28;1216;-79
2021/12/01 15:25:01;;;;;;;;;;;;;;;;;;5076485;28;1164;-78
2021/12/01 15:27:28;;;;;;;;;;;;;;;;;;5086452;28;1223;-79
2021/12/01 15:29:54;;;;;;;;;;;;;;;;;;5089155;28;1974;-79
2021/12/01 15:32:19;;;;;;;;;;;;;;;;;;5105431;28;1187;-79
2021/12/01 15:34:47;;;;;;;;;;;;;;;;;;5051925;28;1242;-79
2021/12/01 15:37:12;;;;;;;;;;;;;;;;;;5062737;28;1253;-79
2021/12/01 15:39:38;;;;;;;;;;;;;;;;;;5044424;28;1238;-79
2021/12/01 15:42:03;;;;;;;;;;;;;;;;;;5063663;28;1177;-78
2021/12/01 15:44:30;;;;;;;;;;;;;;;;;;5066154;28;1225;-79
2021/12/01 15:46:56;;;;;;;;;;;;;;;;;;5084443;28;1245;-79
2021/12/01 15:49:22;;;;;;;;;;;;;;;;;;5065397;28;1977;-79
2021/12/01 15:51:48;;;;;;;;;;;;;;;;;;5063567;28;1305;-79
2021/12/01 15:54:13;;;;;;;;;;;;;;;;;;5075112;28;1127;-78
2021/12/01 15:56:38;;;;;;;;;;;;;;;;;;5060233;28;1228;-79
2021/12/01 15:59:04;;;;;;;;;;;;;;;;;;5061824;28;1261;-79
2021/12/01 16:01:30;;;;;;;;;;;;;;;;;;5063264;28;1374;-79
2021/12/01 16:03:56;;;;;;;;;;;;;;;;;;5042076;28;1267;-78
2021/12/01 16:06:21;;;;;;;;;;;;;;;;;;5062827;28;1412;-79
2021/12/01 16:08:48;;;;;;;;;;;;;;;;;;5062381;28;1951;-79
2021/12/01 16:11:14;;;;;;;;;;;;;;;;;;5064434;28;1185;-79
2021/12/01 16:13:39;;;;;;;;;;;;;;;;;;5040350;28;1215;-78
2021/12/01 16:16:05;;;;;;;;;;;;;;;;;;5065631;28;1356;-79
2021/12/01 16:18:32;;;;;;;;;;;;;;;;;;5061721;28;1238;-78
2021/12/01 16:20:57;;;;;;;;;;;;;;;;;;5057168;28;1136;-78
2021/12/01 16:23:27;;;;;;;;;;;;;;;;;;5061597;28;1172;-78
2021/12/01 16:25:52;;;;;;;;;;;;;;;;;;5052441;28;1186;-79
2021/12/01 16:28:18;;;;;;;;;;;;;;;;;;5077078;28;1961;-79
2021/12/01 16:30:43;;;;;;;;;;;;;;;;;;5077569;28;1219;-78
2021/12/01 16:33:08;;;;;;;;;;;;;;;;;;5063733;28;1260;-78
2021/12/01 16:35:35;;;;;;;;;;;;;;;;;;5076029;28;1341;-78
2021/12/01 16:38:03;;;;;;;;;;;;;;;;;;5079407;28;1197;-79
2021/12/01 16:40:32;;;;;;;;;;;;;;;;;;5076067;28;1215;-77
2021/12/01 16:42:59;;;;;;;;;;;;;;;;;;5076399;28;1281;-76
2021/12/01 16:45:24;;;;;;;;;;;;;;;;;;5058542;28;1350;-79
2021/12/01 16:47:50;;;;;;;;;;;;;;;;;;5061669;28;1906;-79
2021/12/01 16:50:16;;;;;;;;;;;;;;;;;;5066422;28;1131;-78
2021/12/01 16:52:41;;;;;;;;;;;;;;;;;;5064060;28;1203;-78
2021/12/01 16:55:07;;;;;;;;;;;;;;;;;;5047982;28;1198;-79
2021/12/01 16:57:34;;;;;;;;;;;;;;;;;;5055351;28;1322;-78
2021/12/01 17:00:00;;;;;;;;;;;;;;;;;;5039983;28;1188;-79
2021/12/01 17:02:26;;;;;;;;;;;;;;;;;;5056893;28;1174;-79
2021/12/01 17:04:54;;;;;;;;;;;;;;;;;;5046732;28;1352;-78
2021/12/01 17:09:45;;;;;;;;;;;;;;;;;;5062933;28;1902;-78
2021/12/01 17:12:12;;;;;;;;;;;;;;;;;;5062521;28;1198;-75
2021/12/01 17:14:42;;;;;;;;;;;;;;;;;;5049969;28;1196;-77
2021/12/01 17:17:07;;;;;;;;;;;;;;;;;;5042734;28;1201;-75